createdAt,value
2018-03-15T00:00:49.125Z,35.42
2018-03-15T00:01:57.187Z,35.42
2018-03-15T00:03:01.980Z,35.43
2018-03-15T00:04:06.068Z,35.42
2018-03-15T00:05:10.135Z,35.42
2018-03-15T00:06:14.268Z,35.43
2018-03-15T00:07:18.478Z,35.42
2018-03-15T00:08:22.554Z,35.42
2018-03-15T00:09:26.948Z,35.43
2018-03-15T00:10:31.107Z,35.44
2018-03-15T00:11:35.205Z,35.43
2018-03-15T00:12:39.298Z,35.43
2018-03-15T00:13:43.432Z,35.41
2018-03-15T00:14:47.580Z,35.41
2018-03-15T00:15:52.072Z,35.49
2018-03-15T00:16:56.258Z,35.47
2018-03-15T00:18:00.330Z,35.50
2018-03-15T00:19:04.449Z,35.52
2018-03-15T00:20:08.601Z,35.50
2018-03-15T00:21:12.550Z,35.48
2018-03-15T00:22:17.145Z,35.45
2018-03-15T00:23:21.303Z,35.49
2018-03-15T00:24:25.401Z,35.48
2018-03-15T00:25:29.487Z,35.48
2018-03-15T00:26:33.825Z,35.51
2018-03-15T00:27:37.913Z,35.53
2018-03-15T00:28:42.250Z,35.51
2018-03-15T00:29:46.536Z,35.54
2018-03-15T00:30:50.414Z,35.58
2018-03-15T00:31:54.728Z,35.58
2018-03-15T00:32:58.992Z,35.56
2018-03-15T00:34:03.138Z,35.57
2018-03-15T00:35:07.856Z,35.58
2018-03-15T00:36:12.028Z,35.63
2018-03-15T00:37:16.277Z,35.62
2018-03-15T00:38:20.418Z,35.67
2018-03-15T00:39:24.684Z,35.70
2018-03-15T00:40:29.063Z,35.67
2018-03-15T00:41:33.532Z,35.64
2018-03-15T00:42:37.878Z,35.64
2018-03-15T00:43:42.054Z,35.65
2018-03-15T00:44:46.098Z,35.66
2018-03-15T00:45:50.235Z,35.64
2018-03-15T00:46:54.434Z,35.63
2018-03-15T00:47:59.171Z,35.61
2018-03-15T00:49:03.245Z,35.61
2018-03-15T00:50:07.412Z,35.62
2018-03-15T00:51:11.640Z,35.64
2018-03-15T00:52:15.805Z,35.65
2018-03-15T00:53:19.894Z,35.64
2018-03-15T00:54:24.351Z,35.61
2018-03-15T00:55:28.559Z,35.60
2018-03-15T00:56:32.738Z,35.60
2018-03-15T00:57:36.908Z,35.63
2018-03-15T00:58:41.066Z,35.65
2018-03-15T00:59:45.274Z,35.69
2018-03-15T01:00:49.990Z,35.70
2018-03-15T01:01:54.156Z,35.68
2018-03-15T01:02:58.329Z,35.65
2018-03-15T01:04:02.668Z,35.68
2018-03-15T01:05:06.850Z,35.70
2018-03-15T01:06:11.177Z,35.72
2018-03-15T01:07:16.549Z,35.72
2018-03-15T01:08:20.960Z,35.72
2018-03-15T01:09:25.191Z,35.75
2018-03-15T01:10:29.550Z,35.76
2018-03-15T01:11:33.891Z,35.73
2018-03-15T01:12:38.150Z,35.72
2018-03-15T01:13:42.955Z,35.74
2018-03-15T01:14:47.338Z,35.74
2018-03-15T01:15:51.562Z,35.75
2018-03-15T01:16:55.709Z,35.71
2018-03-15T01:17:59.824Z,35.70
2018-03-15T01:19:04.193Z,35.71
2018-03-15T01:20:08.837Z,35.76
2018-03-15T01:21:13.228Z,35.81
2018-03-15T01:22:17.469Z,35.84
2018-03-15T01:23:21.814Z,35.86
2018-03-15T01:24:25.951Z,35.85
2018-03-15T01:25:30.373Z,35.84
2018-03-15T01:26:34.995Z,35.85
2018-03-15T01:27:39.259Z,35.88
2018-03-15T01:28:43.480Z,35.87
2018-03-15T01:29:47.874Z,35.87
2018-03-15T01:30:52.120Z,35.92
2018-03-15T01:31:56.415Z,35.96
2018-03-15T01:33:01.103Z,35.97
2018-03-15T01:34:05.410Z,36.02
2018-03-15T01:35:09.627Z,36.05
2018-03-15T01:36:14.026Z,36.09
2018-03-15T01:37:18.334Z,36.16
2018-03-15T01:38:22.722Z,36.22
2018-03-15T01:39:27.072Z,36.21
2018-03-15T01:40:31.422Z,36.22
2018-03-15T01:41:35.613Z,36.23
2018-03-15T01:42:39.663Z,36.23
2018-03-15T01:43:44.280Z,36.24
2018-03-15T01:44:49.251Z,36.28
2018-03-15T01:45:53.652Z,36.32
2018-03-15T01:46:57.936Z,36.30
2018-03-15T01:48:02.257Z,36.35
2018-03-15T01:49:06.626Z,36.37
2018-03-15T01:50:10.780Z,36.38
2018-03-15T01:51:15.667Z,36.24
2018-03-15T01:52:19.702Z,36.18
2018-03-15T01:53:23.996Z,36.28
2018-03-15T01:54:28.224Z,36.32
2018-03-15T01:55:32.476Z,36.25
2018-03-15T01:56:36.934Z,36.43
2018-03-15T01:57:41.853Z,36.52
2018-03-15T01:58:46.422Z,36.53
2018-03-15T01:59:50.482Z,36.60
2018-03-15T02:00:55.035Z,36.67
2018-03-15T02:01:59.146Z,36.69
2018-03-15T02:03:03.507Z,36.69
2018-03-15T02:04:08.172Z,36.68
2018-03-15T02:05:12.222Z,36.69
2018-03-15T02:06:16.481Z,36.72
2018-03-15T02:07:20.838Z,36.77
2018-03-15T02:08:25.134Z,36.73
2018-03-15T02:09:29.397Z,36.74
2018-03-15T02:10:34.020Z,36.73
2018-03-15T02:11:38.386Z,36.64
2018-03-15T02:12:42.603Z,36.82
2018-03-15T02:13:46.707Z,36.82
2018-03-15T02:14:50.981Z,36.81
2018-03-15T02:15:55.266Z,36.96
2018-03-15T02:17:00.069Z,37.05
2018-03-15T02:18:04.147Z,37.12
2018-03-15T02:19:08.747Z,37.10
2018-03-15T02:20:12.999Z,37.05
2018-03-15T02:21:17.394Z,37.14
2018-03-15T02:22:21.519Z,37.08
2018-03-15T02:23:26.087Z,37.13
2018-03-15T02:24:30.333Z,37.16
2018-03-15T02:25:34.670Z,37.17
2018-03-15T02:26:39.223Z,37.22
2018-03-15T02:27:43.498Z,37.24
2018-03-15T02:28:47.471Z,37.19
2018-03-15T02:29:52.311Z,37.12
2018-03-15T02:30:56.527Z,37.01
2018-03-15T02:32:00.616Z,37.02
2018-03-15T02:33:05.013Z,37.10
2018-03-15T02:34:09.084Z,37.15
2018-03-15T02:35:13.702Z,37.21
2018-03-15T02:36:18.467Z,37.18
2018-03-15T02:37:22.652Z,37.11
2018-03-15T02:38:26.761Z,37.13
2018-03-15T02:39:30.875Z,37.17
2018-03-15T02:40:35.194Z,37.13
2018-03-15T02:41:39.115Z,37.12
2018-03-15T02:42:43.582Z,37.12
2018-03-15T02:43:47.739Z,37.01
2018-03-15T02:44:51.834Z,36.83
2018-03-15T02:45:56.037Z,37.01
2018-03-15T02:47:00.245Z,36.97
2018-03-15T02:48:06.128Z,36.95
2018-03-15T02:49:10.701Z,37.09
2018-03-15T02:50:14.898Z,37.20
2018-03-15T02:51:19.437Z,37.13
2018-03-15T02:52:23.555Z,37.17
2018-03-15T02:53:27.684Z,37.07
2018-03-15T02:54:32.036Z,37.12
2018-03-15T02:55:36.547Z,37.05
2018-03-15T02:56:40.627Z,37.17
2018-03-15T02:57:44.784Z,37.32
2018-03-15T02:58:49.207Z,37.36
2018-03-15T02:59:53.656Z,37.39
2018-03-15T03:00:57.774Z,37.22
2018-03-15T03:02:02.397Z,37.24
2018-03-15T03:03:06.466Z,37.21
2018-03-15T03:04:10.659Z,37.31
2018-03-15T03:05:14.719Z,37.54
2018-03-15T03:06:18.753Z,37.45
2018-03-15T03:07:23.021Z,37.39
2018-03-15T03:08:27.387Z,37.48
2018-03-15T03:09:31.983Z,37.45
2018-03-15T03:10:36.268Z,37.55
2018-03-15T03:11:40.423Z,37.56
2018-03-15T03:12:44.550Z,37.59
2018-03-15T03:13:48.640Z,37.50
2018-03-15T03:14:53.086Z,37.45
2018-03-15T03:15:56.984Z,37.42
2018-03-15T03:17:01.065Z,37.53
2018-03-15T03:18:05.288Z,37.64
2018-03-15T03:19:09.125Z,37.76
2018-03-15T03:20:13.182Z,37.84
2018-03-15T03:21:17.588Z,37.83
2018-03-15T03:22:21.668Z,37.79
2018-03-15T03:23:25.854Z,37.79
2018-03-15T03:24:29.777Z,37.74
2018-03-15T03:25:33.866Z,37.74
2018-03-15T03:26:37.699Z,37.79
2018-03-15T03:27:42.018Z,37.72
2018-03-15T03:28:46.100Z,37.79
2018-03-15T03:29:50.195Z,37.75
2018-03-15T03:30:54.026Z,37.66
2018-03-15T03:31:58.169Z,37.72
2018-03-15T03:33:02.221Z,37.81
2018-03-15T03:34:07.085Z,37.84
2018-03-15T03:35:10.951Z,37.69
2018-03-15T03:36:15.064Z,37.77
2018-03-15T03:37:19.761Z,37.84
2018-03-15T03:38:23.922Z,37.89
2018-03-15T03:39:27.776Z,37.92
2018-03-15T03:40:32.105Z,37.91
2018-03-15T03:41:36.197Z,37.95
2018-03-15T03:42:40.250Z,37.94
2018-03-15T03:43:44.498Z,37.90
2018-03-15T03:44:48.643Z,37.94
2018-03-15T03:45:52.608Z,37.93
2018-03-15T03:46:57.129Z,37.99
2018-03-15T03:48:01.126Z,37.97
2018-03-15T03:49:05.247Z,37.95
2018-03-15T03:50:09.339Z,37.92
2018-03-15T03:51:13.306Z,37.93
2018-03-15T03:52:17.890Z,37.95
2018-03-15T03:53:21.804Z,37.97
2018-03-15T03:54:25.676Z,37.85
2018-03-15T03:55:29.639Z,37.90
2018-03-15T03:56:33.399Z,37.89
2018-03-15T03:57:37.496Z,37.90
2018-03-15T03:58:41.922Z,37.90
2018-03-15T03:59:46.172Z,37.95
2018-03-15T04:00:50.276Z,37.86
2018-03-15T04:01:54.286Z,37.68
2018-03-15T04:02:58.330Z,37.62
2018-03-15T04:04:02.425Z,37.78
2018-03-15T04:05:06.790Z,37.75
2018-03-15T04:06:10.814Z,37.83
2018-03-15T04:07:14.780Z,37.87
2018-03-15T04:08:18.782Z,37.85
2018-03-15T04:09:22.994Z,37.89
2018-03-15T04:10:26.928Z,37.95
2018-03-15T04:11:31.258Z,37.98
2018-03-15T04:12:35.274Z,37.79
2018-03-15T04:13:39.251Z,37.77
2018-03-15T04:14:43.142Z,37.66
2018-03-15T04:15:47.070Z,37.81
2018-03-15T04:16:50.934Z,37.92
2018-03-15T04:17:55.213Z,37.99
2018-03-15T04:18:58.985Z,38.00
2018-03-15T04:20:03.066Z,37.87
2018-03-15T04:21:07.097Z,37.90
2018-03-15T04:22:10.960Z,37.89
2018-03-15T04:23:15.005Z,37.96
2018-03-15T04:24:19.447Z,37.98
2018-03-15T04:25:23.385Z,37.94
2018-03-15T04:26:27.357Z,37.94
2018-03-15T04:27:31.207Z,37.98
2018-03-15T04:28:35.180Z,37.95
2018-03-15T04:29:39.106Z,37.89
2018-03-15T04:30:43.280Z,37.85
2018-03-15T04:31:47.290Z,37.77
2018-03-15T04:32:51.194Z,37.76
2018-03-15T04:33:55.559Z,37.96
2018-03-15T04:34:59.790Z,38.05
2018-03-15T04:36:03.780Z,38.06
2018-03-15T04:37:08.025Z,37.99
2018-03-15T04:38:11.819Z,37.92
2018-03-15T04:39:15.924Z,37.96
2018-03-15T04:40:19.763Z,38.04
2018-03-15T04:41:23.993Z,38.05
2018-03-15T04:42:28.724Z,38.05
2018-03-15T04:43:32.691Z,37.91
2018-03-15T04:44:36.971Z,38.05
2018-03-15T04:45:40.982Z,38.03
2018-03-15T04:46:45.040Z,38.10
2018-03-15T04:47:48.826Z,38.09
2018-03-15T04:48:53.076Z,38.47
2018-03-15T04:49:57.533Z,38.36
2018-03-15T04:51:01.634Z,38.69
2018-03-15T04:52:05.835Z,38.08
2018-03-15T04:53:10.179Z,37.79
2018-03-15T04:54:14.570Z,37.71
2018-03-15T04:55:19.123Z,37.66
2018-03-15T04:56:23.595Z,37.80
2018-03-15T04:57:27.820Z,37.80
2018-03-15T04:58:31.981Z,37.73
2018-03-15T04:59:36.364Z,37.78
2018-03-15T05:00:40.758Z,37.77
2018-03-15T05:01:45.539Z,37.77
2018-03-15T05:02:49.751Z,37.75
2018-03-15T05:03:53.736Z,37.77
2018-03-15T05:04:58.170Z,37.79
2018-03-15T05:06:02.257Z,37.80
2018-03-15T05:07:06.476Z,37.74
2018-03-15T05:08:11.048Z,37.68
2018-03-15T05:09:15.266Z,37.68
2018-03-15T05:10:19.604Z,37.67
2018-03-15T05:11:24.020Z,37.66
2018-03-15T05:12:28.588Z,37.66
2018-03-15T05:13:32.891Z,37.66
2018-03-15T05:14:37.574Z,37.67
2018-03-15T05:15:41.983Z,37.69
2018-03-15T05:16:46.345Z,37.66
2018-03-15T05:17:50.522Z,37.65
2018-03-15T05:18:54.797Z,37.62
2018-03-15T05:19:59.072Z,37.64
2018-03-15T05:21:03.593Z,37.65
2018-03-15T05:22:07.865Z,37.67
2018-03-15T05:23:12.104Z,37.63
2018-03-15T05:24:16.378Z,37.60
2018-03-15T05:25:21.578Z,37.66
2018-03-15T05:26:25.973Z,37.67
2018-03-15T05:27:30.597Z,37.66
2018-03-15T05:28:35.062Z,37.64
2018-03-15T05:29:39.289Z,37.58
2018-03-15T05:30:43.715Z,37.53
2018-03-15T05:31:47.822Z,37.56
2018-03-15T05:32:51.960Z,37.53
2018-03-15T05:33:56.515Z,37.51
2018-03-15T05:35:00.839Z,37.48
2018-03-15T05:36:05.014Z,37.46
2018-03-15T05:37:09.277Z,37.49
2018-03-15T05:38:13.641Z,37.58
2018-03-15T05:39:18.043Z,37.75
2018-03-15T05:40:22.734Z,37.74
2018-03-15T05:41:27.055Z,37.82
2018-03-15T05:42:31.316Z,37.71
2018-03-15T05:43:35.636Z,37.63
2018-03-15T05:44:39.936Z,37.73
2018-03-15T05:45:44.114Z,37.83
2018-03-15T05:46:48.962Z,37.87
2018-03-15T05:47:53.620Z,37.79
2018-03-15T05:48:57.849Z,37.77
2018-03-15T05:50:02.160Z,37.71
2018-03-15T05:51:06.420Z,37.54
2018-03-15T05:52:10.673Z,37.66
2018-03-15T05:53:15.126Z,37.82
2018-03-15T05:54:19.137Z,37.77
2018-03-15T05:55:23.371Z,37.78
2018-03-15T05:56:27.647Z,37.79
2018-03-15T05:57:32.009Z,37.73
2018-03-15T05:58:36.151Z,37.68
2018-03-15T05:59:40.404Z,37.65
2018-03-15T06:00:44.909Z,37.64
2018-03-15T06:01:49.091Z,37.63
2018-03-15T06:02:53.626Z,37.72
2018-03-15T06:03:58.044Z,37.63
2018-03-15T06:05:02.751Z,37.61
2018-03-15T06:06:06.933Z,37.47
2018-03-15T06:07:12.163Z,37.69
2018-03-15T06:08:16.443Z,37.64
2018-03-15T06:09:20.716Z,37.73
2018-03-15T06:10:25.021Z,37.74
2018-03-15T06:11:29.470Z,37.78
2018-03-15T06:12:33.883Z,37.85
2018-03-15T06:13:38.266Z,37.83
2018-03-15T06:14:43.726Z,37.67
2018-03-15T06:15:48.088Z,37.66
2018-03-15T06:16:52.439Z,37.52
2018-03-15T06:17:57.156Z,37.44
2018-03-15T06:19:01.362Z,37.53
2018-03-15T06:20:05.449Z,37.66
2018-03-15T06:21:09.751Z,37.70
2018-03-15T06:22:13.923Z,37.79
2018-03-15T06:23:18.388Z,37.81
2018-03-15T06:24:23.021Z,37.73
2018-03-15T06:25:27.324Z,37.79
2018-03-15T06:26:31.530Z,37.72
2018-03-15T06:27:35.803Z,37.75
2018-03-15T06:28:39.908Z,37.73
2018-03-15T06:29:44.322Z,37.58
2018-03-15T06:30:49.110Z,37.62
2018-03-15T06:31:53.725Z,37.81
2018-03-15T06:32:58.013Z,37.87
2018-03-15T06:34:02.174Z,37.88
2018-03-15T06:35:06.484Z,37.86
2018-03-15T06:36:10.718Z,37.81
2018-03-15T06:37:15.540Z,37.70
2018-03-15T06:38:19.631Z,37.63
2018-03-15T06:39:23.808Z,37.78
2018-03-15T06:40:28.042Z,37.85
2018-03-15T06:41:32.167Z,37.72
2018-03-15T06:42:36.312Z,37.60
2018-03-15T06:43:40.455Z,37.65
2018-03-15T06:44:44.660Z,37.76
2018-03-15T06:45:48.885Z,37.83
2018-03-15T06:46:52.998Z,37.79
2018-03-15T06:47:57.135Z,37.80
2018-03-15T06:49:01.748Z,37.89
2018-03-15T06:50:06.077Z,37.85
2018-03-15T06:51:10.642Z,37.72
2018-03-15T06:52:14.921Z,37.79
2018-03-15T06:53:19.104Z,37.78
2018-03-15T06:54:23.305Z,37.85
2018-03-15T06:55:28.036Z,37.79
2018-03-15T06:56:32.326Z,37.83
2018-03-15T06:57:36.588Z,37.80
2018-03-15T06:58:40.893Z,37.91
2018-03-15T06:59:45.143Z,37.89
2018-03-15T07:00:49.659Z,37.66
2018-03-15T07:01:54.783Z,38.17
2018-03-15T07:02:59.143Z,38.19
2018-03-15T07:04:03.603Z,38.19
2018-03-15T07:05:07.804Z,37.83
2018-03-15T07:06:11.910Z,37.80
2018-03-15T07:07:16.786Z,38.89
2018-03-15T07:08:20.943Z,38.16
2018-03-15T07:09:25.115Z,37.92
2018-03-15T07:10:29.603Z,37.62
2018-03-15T07:11:33.831Z,37.75
2018-03-15T07:12:38.032Z,37.64
2018-03-15T07:13:42.784Z,36.85
2018-03-15T07:14:46.890Z,38.31
2018-03-15T07:15:51.232Z,38.32
2018-03-15T07:16:55.746Z,38.41
2018-03-15T07:17:59.974Z,37.20
2018-03-15T07:19:04.661Z,37.43
2018-03-15T07:20:10.504Z,38.21
2018-03-15T07:22:18.427Z,37.18
2018-03-15T07:23:22.615Z,37.89
2018-03-15T07:24:26.750Z,37.28
2018-03-15T07:25:31.168Z,36.61
2018-03-15T07:26:35.779Z,36.66
2018-03-15T07:27:40.062Z,36.31
2018-03-15T07:28:44.358Z,36.26
2018-03-15T07:29:48.716Z,36.32
2018-03-15T07:30:52.852Z,37.23
2018-03-15T07:31:57.053Z,37.60
2018-03-15T07:33:01.606Z,37.64
2018-03-15T07:34:05.913Z,37.02
2018-03-15T07:35:10.170Z,36.31
2018-03-15T07:36:14.630Z,36.25
2018-03-15T07:37:18.664Z,36.33
2018-03-15T07:38:23.110Z,37.63
2018-03-15T07:39:27.526Z,37.03
2018-03-15T07:40:31.713Z,37.32
2018-03-15T07:41:35.973Z,37.98
2018-03-15T07:42:40.207Z,38.08
2018-03-15T07:43:44.373Z,37.73
2018-03-15T07:44:49.147Z,37.43
2018-03-15T07:45:53.276Z,37.06
2018-03-15T07:46:57.716Z,36.73
2018-03-15T07:48:02.148Z,36.67
2018-03-15T07:49:06.307Z,36.61
2018-03-15T07:50:10.509Z,36.68
2018-03-15T07:51:15.156Z,36.19
2018-03-15T07:52:19.246Z,35.75
2018-03-15T07:53:23.502Z,36.29
2018-03-15T07:54:27.666Z,36.49
2018-03-15T07:55:31.807Z,36.76
2018-03-15T07:56:36.087Z,36.67
2018-03-15T07:57:40.569Z,36.73
2018-03-15T07:58:44.979Z,36.59
2018-03-15T07:59:49.166Z,36.34
2018-03-15T08:00:53.353Z,36.73
2018-03-15T08:01:57.729Z,36.23
2018-03-15T08:03:01.903Z,36.66
2018-03-15T08:04:06.403Z,36.60
2018-03-15T08:05:10.570Z,36.41
2018-03-15T08:06:15.006Z,36.31
2018-03-15T08:07:19.103Z,36.55
2018-03-15T08:08:23.304Z,36.60
2018-03-15T08:09:27.488Z,36.69
2018-03-15T08:10:31.893Z,36.70
2018-03-15T08:11:36.290Z,36.57
2018-03-15T08:12:40.761Z,36.56
2018-03-15T08:13:45.526Z,36.41
2018-03-15T08:14:51.226Z,36.44
2018-03-15T08:15:55.488Z,35.87
2018-03-15T08:17:00.074Z,36.51
2018-03-15T08:18:04.241Z,36.55
2018-03-15T08:19:08.374Z,36.32
2018-03-15T08:20:12.563Z,36.21
2018-03-15T08:21:16.670Z,36.15
2018-03-15T08:22:21.561Z,36.29
2018-03-15T08:23:27.179Z,35.71
2018-03-15T08:24:31.721Z,36.17
2018-03-15T08:25:36.814Z,36.27
2018-03-15T08:26:41.977Z,36.12
2018-03-15T08:27:46.198Z,36.05
2018-03-15T08:28:50.308Z,36.19
2018-03-15T08:29:54.703Z,36.38
2018-03-15T08:30:58.949Z,36.20
2018-03-15T08:32:03.059Z,35.93
2018-03-15T08:33:07.142Z,35.97
2018-03-15T08:34:11.274Z,35.89
2018-03-15T08:35:15.506Z,36.08
2018-03-15T08:36:19.933Z,36.14
2018-03-15T08:37:24.046Z,36.05
2018-03-15T08:38:28.149Z,36.12
2018-03-15T08:39:32.175Z,36.05
2018-03-15T08:40:36.307Z,36.32
2018-03-15T08:41:40.453Z,35.94
2018-03-15T08:42:45.014Z,36.16
2018-03-15T08:43:49.669Z,36.08
2018-03-15T08:44:53.903Z,36.08
2018-03-15T08:45:58.043Z,36.23
2018-03-15T08:47:02.151Z,36.23
2018-03-15T08:48:06.217Z,36.32
2018-03-15T08:49:10.797Z,36.17
2018-03-15T08:50:14.929Z,36.13
2018-03-15T08:51:18.945Z,36.05
2018-03-15T08:52:23.130Z,35.98
2018-03-15T08:53:27.388Z,35.92
2018-03-15T08:54:31.495Z,35.84
2018-03-15T08:55:35.896Z,35.72
2018-03-15T08:56:40.754Z,35.66
2018-03-15T08:57:44.986Z,36.01
2018-03-15T08:58:48.946Z,35.73
2018-03-15T08:59:52.977Z,36.14
2018-03-15T09:00:57.126Z,35.97
2018-03-15T09:02:01.650Z,36.16
2018-03-15T09:03:05.800Z,35.99
2018-03-15T09:04:11.187Z,35.81
2018-03-15T09:05:15.293Z,35.68
2018-03-15T09:06:19.421Z,35.73
2018-03-15T09:07:23.677Z,35.61
2018-03-15T09:08:29.276Z,35.72
2018-03-15T09:09:34.392Z,35.83
2018-03-15T09:10:38.580Z,35.89
2018-03-15T09:11:42.824Z,36.04
2018-03-15T09:12:49.647Z,36.02
2018-03-15T09:13:53.960Z,35.62
2018-03-15T09:14:58.053Z,35.88
2018-03-15T09:16:02.207Z,35.91
2018-03-15T09:17:06.410Z,35.83
2018-03-15T09:18:10.574Z,35.91
2018-03-15T09:19:14.900Z,35.93
2018-03-15T09:20:19.533Z,35.77
2018-03-15T09:21:23.622Z,35.81
2018-03-15T09:22:27.880Z,35.71
2018-03-15T09:23:32.062Z,35.73
2018-03-15T09:24:36.130Z,36.00
2018-03-15T09:25:40.268Z,36.13
2018-03-15T09:26:45.000Z,35.92
2018-03-15T09:27:49.173Z,35.74
2018-03-15T09:28:53.206Z,35.63
2018-03-15T09:29:57.215Z,35.61
2018-03-15T09:31:01.549Z,35.58
2018-03-15T09:32:05.884Z,35.55
2018-03-15T09:33:10.539Z,35.47
2018-03-15T09:34:14.774Z,35.51
2018-03-15T09:35:19.001Z,35.55
2018-03-15T09:36:23.281Z,35.58
2018-03-15T09:37:27.603Z,35.53
2018-03-15T09:38:31.739Z,35.60
2018-03-15T09:39:36.398Z,35.55
2018-03-15T09:40:40.539Z,35.61
2018-03-15T09:41:44.635Z,35.62
2018-03-15T09:42:49.427Z,35.77
2018-03-15T09:43:53.604Z,35.85
2018-03-15T09:44:57.793Z,35.71
2018-03-15T09:46:02.294Z,35.60
2018-03-15T09:47:06.632Z,35.55
2018-03-15T09:48:10.813Z,35.57
2018-03-15T09:49:15.079Z,35.57
2018-03-15T09:50:19.253Z,35.63
2018-03-15T09:51:23.357Z,35.58
2018-03-15T09:52:27.700Z,35.67
2018-03-15T09:53:31.891Z,35.58
2018-03-15T09:54:36.328Z,35.42
2018-03-15T09:55:40.479Z,35.35
2018-03-15T09:56:44.828Z,35.28
2018-03-15T09:57:48.851Z,35.30
2018-03-15T09:58:53.476Z,35.35
2018-03-15T09:59:57.519Z,35.37
2018-03-15T10:01:01.706Z,35.42
2018-03-15T10:02:05.803Z,35.47
2018-03-15T10:03:09.919Z,35.41
2018-03-15T10:04:14.175Z,35.34
2018-03-15T10:05:18.349Z,35.19
2018-03-15T10:06:22.454Z,35.20
2018-03-15T10:07:26.609Z,35.15
2018-03-15T10:08:31.421Z,35.15
2018-03-15T10:09:35.509Z,35.19
2018-03-15T10:10:40.069Z,35.22
2018-03-15T10:11:44.192Z,35.29
2018-03-15T10:12:48.345Z,35.25
2018-03-15T10:13:52.392Z,35.29
2018-03-15T10:14:56.438Z,35.34
2018-03-15T10:16:00.474Z,35.34
2018-03-15T10:17:08.159Z,35.39
2018-03-15T10:18:12.235Z,35.37
2018-03-15T10:19:16.450Z,35.39
2018-03-15T10:20:20.570Z,35.37
2018-03-15T10:21:24.837Z,35.35
2018-03-15T10:22:28.896Z,35.38
2018-03-15T10:23:33.356Z,35.29
2018-03-15T10:24:37.472Z,35.21
2018-03-15T10:25:41.780Z,35.15
2018-03-15T10:26:45.870Z,35.06
2018-03-15T10:27:49.921Z,35.01
2018-03-15T10:28:53.996Z,34.95
2018-03-15T10:29:58.415Z,34.92
2018-03-15T10:31:02.491Z,34.97
2018-03-15T10:32:06.558Z,34.90
2018-03-15T10:33:14.619Z,34.92
2018-03-15T10:34:18.724Z,34.93
2018-03-15T10:35:26.707Z,34.93
2018-03-15T10:36:31.123Z,34.97
2018-03-15T10:37:39.178Z,34.97
2018-03-15T10:38:43.293Z,34.96
2018-03-15T10:39:47.374Z,35.11
2018-03-15T10:40:51.440Z,35.18
2018-03-15T10:41:55.470Z,35.12
2018-03-15T10:43:01.148Z,35.17
2018-03-15T10:44:05.302Z,35.19
2018-03-15T10:45:09.216Z,35.22
2018-03-15T10:46:13.168Z,35.23
2018-03-15T10:47:17.201Z,35.24
2018-03-15T10:48:21.289Z,35.24
2018-03-15T10:49:25.903Z,35.20
2018-03-15T10:50:30.086Z,35.14
2018-03-15T10:51:34.231Z,35.05
2018-03-15T10:52:38.352Z,35.05
2018-03-15T10:53:42.524Z,35.89
2018-03-15T10:54:46.520Z,35.56
2018-03-15T10:55:50.645Z,35.29
2018-03-15T10:56:54.732Z,35.23
2018-03-15T10:57:58.825Z,35.16
2018-03-15T10:59:03.090Z,35.11
2018-03-15T11:00:07.254Z,35.06
2018-03-15T11:01:15.861Z,35.04
2018-03-15T11:02:19.955Z,34.97
2018-03-15T11:03:27.885Z,35.00
2018-03-15T11:04:35.229Z,35.01
2018-03-15T11:05:43.187Z,35.03
2018-03-15T11:06:51.579Z,35.06
2018-03-15T11:08:00.113Z,35.04
2018-03-15T11:09:08.082Z,35.00
2018-03-15T11:10:12.023Z,34.91
2018-03-15T11:11:16.074Z,34.90
2018-03-15T11:12:20.236Z,34.85
2018-03-15T11:13:25.836Z,35.22
2018-03-15T11:14:30.075Z,35.45
2018-03-15T11:15:34.496Z,35.12
2018-03-15T11:16:38.511Z,35.17
2018-03-15T11:17:42.589Z,35.44
2018-03-15T11:18:46.666Z,36.20
2018-03-15T11:19:50.968Z,35.98
2018-03-15T11:20:55.006Z,36.36
2018-03-15T11:21:59.119Z,37.12
2018-03-15T11:23:03.175Z,37.71
2018-03-15T11:24:07.314Z,36.65
2018-03-15T11:25:11.218Z,37.92
2018-03-15T11:26:15.498Z,36.94
2018-03-15T11:27:19.503Z,37.07
2018-03-15T11:28:23.544Z,36.96
2018-03-15T11:29:27.620Z,37.14
2018-03-15T11:30:31.560Z,36.99
2018-03-15T11:31:35.534Z,36.99
2018-03-15T11:32:40.091Z,36.91
2018-03-15T11:33:44.196Z,37.05
2018-03-15T11:34:48.188Z,37.09
2018-03-15T11:35:52.163Z,37.04
2018-03-15T11:36:56.202Z,36.94
2018-03-15T11:38:00.185Z,36.88
2018-03-15T11:39:06.125Z,37.03
2018-03-15T11:40:10.626Z,36.92
2018-03-15T11:41:14.819Z,36.97
2018-03-15T11:42:19.432Z,37.04
2018-03-15T11:43:24.830Z,36.93
2018-03-15T11:44:30.135Z,36.78
2018-03-15T11:45:34.231Z,36.71
2018-03-15T11:46:48.942Z,36.51
2018-03-15T11:47:53.296Z,36.47
2018-03-15T11:48:58.579Z,36.43
2018-03-15T11:50:02.956Z,36.48
2018-03-15T11:51:08.031Z,36.78
2018-03-15T11:52:12.503Z,36.80
2018-03-15T11:53:16.532Z,36.63
2018-03-15T11:54:21.196Z,36.48
2018-03-15T11:55:25.221Z,36.23
2018-03-15T11:56:29.587Z,36.02
2018-03-15T11:57:34.028Z,35.83
2018-03-15T11:58:38.122Z,35.69
2018-03-15T11:59:42.140Z,35.63
2018-03-15T12:00:46.133Z,35.63
2018-03-15T12:01:50.191Z,35.63
2018-03-15T12:02:54.212Z,35.44
2018-03-15T12:03:58.734Z,35.37
2018-03-15T12:05:02.510Z,35.40
2018-03-15T12:06:06.557Z,35.33
2018-03-15T12:07:10.794Z,35.45
2018-03-15T12:08:14.699Z,35.48
2018-03-15T12:09:18.763Z,35.64
2018-03-15T12:10:23.080Z,35.56
2018-03-15T12:11:27.241Z,35.56
2018-03-15T12:12:31.374Z,35.81
2018-03-15T12:13:35.336Z,35.61
2018-03-15T12:14:39.323Z,35.35
2018-03-15T12:15:43.245Z,35.16
2018-03-15T12:16:47.822Z,35.06
2018-03-15T12:17:51.806Z,34.92
2018-03-15T12:18:55.817Z,34.77
2018-03-15T12:19:59.763Z,34.76
2018-03-15T12:21:03.836Z,35.09
2018-03-15T12:22:07.812Z,34.99
2018-03-15T12:23:12.042Z,34.91
2018-03-15T12:24:16.052Z,34.79
2018-03-15T12:25:19.932Z,34.73
2018-03-15T12:26:24.735Z,34.68
2018-03-15T12:27:28.730Z,34.64
2018-03-15T12:28:32.739Z,34.56
2018-03-15T12:29:37.017Z,34.51
2018-03-15T12:30:41.040Z,34.56
2018-03-15T12:31:45.248Z,35.00
2018-03-15T12:32:49.273Z,35.42
2018-03-15T12:33:53.496Z,35.26
2018-03-15T12:34:57.565Z,35.04
2018-03-15T12:36:01.728Z,34.89
2018-03-15T12:37:05.662Z,34.75
2018-03-15T12:38:09.622Z,34.67
2018-03-15T12:39:13.603Z,34.54
2018-03-15T12:40:17.792Z,35.09
2018-03-15T12:41:22.202Z,35.40
2018-03-15T12:42:26.145Z,34.89
2018-03-15T12:43:30.038Z,34.94
2018-03-15T12:44:33.948Z,35.03
2018-03-15T12:45:37.791Z,35.08
2018-03-15T12:46:41.823Z,35.05
2018-03-15T12:47:46.091Z,35.09
2018-03-15T12:48:50.043Z,35.23
2018-03-15T12:49:53.996Z,35.25
2018-03-15T12:50:57.853Z,35.18
2018-03-15T12:52:01.744Z,35.14
2018-03-15T12:53:05.775Z,35.07
2018-03-15T12:54:09.770Z,35.11
2018-03-15T12:55:13.720Z,35.10
2018-03-15T12:56:17.618Z,35.18
2018-03-15T12:57:21.653Z,35.18
2018-03-15T12:58:25.983Z,35.22
2018-03-15T12:59:30.712Z,35.05
2018-03-15T13:00:34.754Z,34.90
2018-03-15T13:01:38.963Z,34.75
2018-03-15T13:02:42.953Z,34.46
2018-03-15T13:03:47.123Z,34.39
2018-03-15T13:04:51.025Z,34.31
2018-03-15T13:05:55.478Z,34.27
2018-03-15T13:06:59.768Z,34.34
2018-03-15T13:08:04.013Z,34.27
2018-03-15T13:09:07.889Z,34.30
2018-03-15T13:10:11.795Z,34.26
2018-03-15T13:11:15.788Z,34.26
2018-03-15T13:12:20.542Z,34.12
2018-03-15T13:13:24.957Z,34.06
2018-03-15T13:14:28.950Z,33.89
2018-03-15T13:15:33.964Z,33.79
2018-03-15T13:16:38.459Z,33.73
2018-03-15T13:17:42.812Z,33.76
2018-03-15T13:18:48.382Z,34.00
2018-03-15T13:19:54.448Z,34.06
2018-03-15T13:20:58.398Z,34.10
2018-03-15T13:22:02.621Z,34.15
2018-03-15T13:23:06.563Z,33.99
2018-03-15T13:24:10.400Z,34.20
2018-03-15T13:25:14.809Z,33.92
2018-03-15T13:26:18.764Z,33.96
2018-03-15T13:27:22.609Z,33.84
2018-03-15T13:28:26.881Z,33.86
2018-03-15T13:29:31.017Z,33.91
2018-03-15T13:30:37.388Z,33.93
2018-03-15T13:31:41.711Z,33.83
2018-03-15T13:32:45.681Z,33.88
2018-03-15T13:33:50.074Z,33.85
2018-03-15T13:34:54.207Z,33.83
2018-03-15T13:35:58.904Z,33.73
2018-03-15T13:37:02.797Z,33.91
2018-03-15T13:38:07.120Z,33.84
2018-03-15T13:39:10.972Z,33.83
2018-03-15T13:40:14.973Z,33.75
2018-03-15T13:41:19.077Z,33.92
2018-03-15T13:42:23.086Z,33.89
2018-03-15T13:43:27.063Z,33.94
2018-03-15T13:44:31.460Z,33.89
2018-03-15T13:45:35.723Z,33.77
2018-03-15T13:46:39.574Z,33.85
2018-03-15T13:47:43.960Z,33.98
2018-03-15T13:48:47.895Z,33.90
2018-03-15T13:49:53.406Z,33.92